Time;durP1;ratioP1;P1;durP2;ratioP2;P2;SDS_P1;SDS_P2;PMS_P1;PMS_P2;Temp;Humidity;BMP_temperature;BMP_pressure;BME280_temperature;BME280_humidity;BME280_pressure;Samples;Min_cycle;Max_cycle;Signal;HPM_P1;HPM_P2
2022/10/05 00:00:47;;;;;;;7.10;6.50;;;13.80;1.00;;;;;;5050023;28;21077;-81
2022/10/05 00:03:16;;;;;;;9.13;8.27;;;13.70;99.90;;;;;;5049987;28;20494;-81
2022/10/05 00:05:46;;;;;;;7.87;7.20;;;13.60;99.90;;;;;;5048625;28;21228;-81
2022/10/05 00:08:16;;;;;;;9.90;8.90;;;13.70;1.00;;;;;;5046112;28;20470;-81
2022/10/05 00:10:45;;;;;;;9.27;7.60;;;13.70;1.00;;;;;;5043363;28;20447;-82
2022/10/05 00:13:15;;;;;;;7.93;7.20;;;13.70;99.90;;;;;;5044640;28;20498;-81
2022/10/05 00:15:43;;;;;;;9.10;6.97;;;13.50;1.00;;;;;;5048352;28;20490;-82
2022/10/05 00:18:17;;;;;;;6.87;6.37;;;13.50;12.30;;;;;;5050797;28;20594;-82
2022/10/05 00:20:46;;;;;;;9.00;8.10;;;13.50;1.00;;;;;;5044521;28;20882;-83
2022/10/05 00:23:18;;;;;;;7.63;7.10;;;13.60;99.90;;;;;;5044357;28;20972;-82
2022/10/05 00:25:47;;;;;;;8.23;7.53;;;13.50;1.00;;;;;;5053078;28;21069;-82
2022/10/05 00:28:26;;;;;;;7.63;7.03;;;13.40;99.90;;;;;;5043241;28;20917;-82
2022/10/05 00:30:56;;;;;;;6.90;6.40;;;13.40;1.00;;;;;;5041798;28;20552;-82
2022/10/05 00:33:26;;;;;;;7.17;6.67;;;13.30;1.00;;;;;;5040394;28;20458;-81
2022/10/05 00:35:54;;;;;;;7.80;7.03;;;13.30;1.00;;;;;;5046715;28;20504;-82
2022/10/05 00:38:22;;;;;;;10.30;7.17;;;13.30;1.00;;;;;;5046773;28;20560;-83
2022/10/05 00:41:05;;;;;;;7.93;7.33;;;13.30;99.90;;;;;;5045105;28;20485;-82
2022/10/05 00:43:55;;;;;;;8.43;7.73;;;13.30;1.00;;;;;;5044425;28;20845;-83
2022/10/05 00:46:31;;;;;;;7.57;6.97;;;13.20;1.00;;;;;;5046074;28;20446;-82
2022/10/05 00:49:09;;;;;;;8.53;7.47;;;13.20;1.00;;;;;;5057627;28;21121;-81
2022/10/05 00:51:41;;;;;;;8.53;7.83;;;13.30;1.00;;;;;;5048703;28;20463;-81
2022/10/05 00:54:22;;;;;;;8.23;7.40;;;13.20;35.60;;;;;;5046066;28;20447;-82
2022/10/05 00:57:09;;;;;;;6.97;6.47;;;13.10;99.90;;;;;;5043563;28;20449;-81
2022/10/05 00:59:51;;;;;;;8.00;7.20;;;13.00;39.20;;;;;;5043414;28;20452;-81
2022/10/05 01:02:26;;;;;;;8.43;7.63;;;12.90;99.90;;;;;;5045681;28;20569;-81
2022/10/05 01:05:08;;;;;;;7.50;6.90;;;13.00;99.90;;;;;;5042192;28;20458;-81
2022/10/05 01:07:45;;;;;;;9.20;8.40;;;13.00;99.90;;;;;;5046197;28;20472;-81
2022/10/05 01:10:22;;;;;;;8.17;7.47;;;12.90;1.00;;;;;;5048117;28;20868;-81
2022/10/05 01:13:02;;;;;;;7.93;7.23;;;12.80;99.90;;;;;;5048868;28;21285;-80
2022/10/05 01:15:35;;;;;;;8.73;8.00;;;13.00;99.90;;;;;;5049039;28;20548;-81
2022/10/05 01:18:11;;;;;;;8.10;7.30;;;12.90;1.00;;;;;;5047468;28;20489;-81
2022/10/05 01:20:49;;;;;;;7.70;7.10;;;12.90;1.00;;;;;;5043609;28;20570;-81
2022/10/05 01:23:39;;;;;;;7.90;7.20;;;12.70;99.90;;;;;;5045141;28;21001;-82
2022/10/05 01:26:34;;;;;;;8.53;7.73;;;12.70;1.00;;;;;;5046640;28;20485;-81
2022/10/05 01:29:12;;;;;;;7.80;7.10;;;12.80;99.90;;;;;;5043421;28;20979;-81
2022/10/05 01:31:48;;;;;;;7.87;7.17;;;12.70;99.90;;;;;;5040617;28;20820;-82
2022/10/05 01:34:26;;;;;;;7.93;7.13;;;12.70;99.90;;;;;;5045574;28;20457;-81
2022/10/05 01:37:03;;;;;;;9.00;8.10;;;12.60;99.90;;;;;;5041523;28;20483;-81
2022/10/05 01:39:37;;;;;;;7.43;6.80;;;12.60;1.00;;;;;;5036735;28;20517;-81
2022/10/05 01:42:19;;;;;;;6.53;6.13;;;12.60;99.90;;;;;;5043928;28;20524;-81
2022/10/05 01:44:54;;;;;;;8.50;7.50;;;12.50;1.00;;;;;;5044280;28;20554;-81
2022/10/05 01:47:35;;;;;;;7.80;7.10;;;12.40;99.90;;;;;;5048596;28;20518;-82
2022/10/05 01:50:10;;;;;;;7.70;7.00;;;12.30;99.90;;;;;;5042879;28;20458;-82
2022/10/05 01:52:48;;;;;;;6.93;6.40;;;12.30;69.90;;;;;;5041053;28;21162;-82
2022/10/05 01:55:22;;;;;;;8.53;7.80;;;12.20;1.00;;;;;;5040692;28;20583;-80
2022/10/05 01:58:05;;;;;;;11.07;7.00;;;12.30;1.00;;;;;;5047385;28;20473;-82
2022/10/05 02:00:40;;;;;;;7.33;6.50;;;12.20;1.00;;;;;;5046337;28;20471;-82
2022/10/05 02:03:16;;;;;;;6.77;6.20;;;12.20;1.00;;;;;;5049708;28;20457;-81
2022/10/05 02:05:50;;;;;;;7.10;6.60;;;12.10;1.00;;;;;;5036225;28;20451;-81
2022/10/05 02:08:23;;;;;;;7.17;6.57;;;12.00;1.00;;;;;;5046406;28;21010;-82
2022/10/05 02:10:57;;;;;;;7.20;6.60;;;11.90;99.90;;;;;;5046726;28;20820;-80
2022/10/05 02:13:30;;;;;;;6.10;5.70;;;11.90;1.00;;;;;;5040673;28;20439;-81
2022/10/05 02:16:03;;;;;;;7.57;6.83;;;12.00;1.00;;;;;;5044031;28;20595;-81
2022/10/05 02:18:46;;;;;;;7.57;6.77;;;12.00;99.90;;;;;;5044648;28;20473;-82
2022/10/05 02:21:15;;;;;;;7.40;6.60;;;12.00;99.90;;;;;;5043685;28;20562;-81
2022/10/05 02:23:47;;;;;;;7.00;6.40;;;11.90;99.60;;;;;;5046684;28;20460;-81
2022/10/05 02:26:17;;;;;;;7.43;6.83;;;11.90;1.00;;;;;;5047066;28;21108;-82
2022/10/05 02:28:49;;;;;;;8.30;7.60;;;12.10;99.90;;;;;;5042697;28;20471;-81
2022/10/05 02:31:22;;;;;;;7.57;6.90;;;12.20;99.90;;;;;;5045330;28;20497;-81
2022/10/05 02:33:51;;;;;;;7.00;6.40;;;12.20;35.00;;;;;;5040904;28;21002;-81
2022/10/05 02:36:26;;;;;;;7.27;6.57;;;12.10;1.00;;;;;;5046665;28;20500;-81
2022/10/05 02:39:02;;;;;;;7.53;6.83;;;12.00;1.00;;;;;;5046406;28;20499;-82
2022/10/05 02:41:42;;;;;;;7.00;6.30;;;12.00;99.90;;;;;;5038883;28;20517;-82
2022/10/05 02:44:22;;;;;;;7.57;6.87;;;11.90;99.90;;;;;;5048561;28;21106;-81
2022/10/05 02:47:01;;;;;;;6.53;6.03;;;11.90;38.10;;;;;;5041200;28;20551;-80
2022/10/05 02:49:35;;;;;;;6.33;5.87;;;11.90;1.00;;;;;;5042309;28;20454;-81
2022/10/05 02:52:10;;;;;;;6.90;6.30;;;11.80;1.00;;;;;;5041890;28;20451;-82
2022/10/05 02:54:47;;;;;;;6.80;6.30;;;11.70;1.00;;;;;;5042887;28;20945;-81
2022/10/05 02:57:22;;;;;;;6.20;5.70;;;11.80;1.00;;;;;;5040666;28;20526;-81
2022/10/05 02:59:58;;;;;;;6.50;5.80;;;11.70;99.90;;;;;;5039303;28;20452;-79
2022/10/05 03:02:35;;;;;;;8.00;7.20;;;11.80;1.00;;;;;;5045554;28;20598;-80
2022/10/05 03:05:12;;;;;;;6.80;6.30;;;11.70;1.00;;;;;;5036304;28;20456;-79
2022/10/05 03:07:50;;;;;;;7.97;7.20;;;11.70;99.90;;;;;;5039879;28;20599;-80
2022/10/05 03:10:26;;;;;;;6.90;6.30;;;11.70;1.00;;;;;;5040189;28;20439;-81
2022/10/05 03:13:01;;;;;;;6.30;5.90;;;11.70;99.90;;;;;;5040670;28;20454;-80
2022/10/05 03:15:59;;;;;;;6.90;6.27;;;11.70;1.00;;;;;;5040835;28;20453;-81
2022/10/05 03:18:42;;;;;;;7.53;5.87;;;11.60;99.90;;;;;;5046632;28;20561;-80
2022/10/05 03:21:23;;;;;;;6.30;5.80;;;11.60;99.90;;;;;;5045500;28;20549;-81
2022/10/05 03:24:07;;;;;;;6.83;6.33;;;11.60;1.00;;;;;;5044829;28;20496;-81
2022/10/05 03:26:48;;;;;;;7.13;6.37;;;11.50;92.00;;;;;;5042971;28;20509;-81
2022/10/05 03:29:27;;;;;;;6.50;6.07;;;11.60;12.80;;;;;;5048497;28;20452;-82
2022/10/05 03:32:00;;;;;;;7.17;6.60;;;11.50;99.90;;;;;;5037993;28;20451;-81
2022/10/05 03:34:36;;;;;;;7.43;6.67;;;11.50;4.80;;;;;;5042692;28;20449;-81
2022/10/05 03:37:13;;;;;;;8.27;7.50;;;11.60;99.90;;;;;;5036434;28;20514;-82
2022/10/05 03:39:46;;;;;;;7.40;6.80;;;11.50;99.90;;;;;;5038995;28;20516;-81
2022/10/05 03:42:25;;;;;;;7.23;6.63;;;11.40;99.90;;;;;;5044990;28;20509;-81
2022/10/05 03:44:59;;;;;;;8.20;7.50;;;11.60;99.90;;;;;;5036976;28;21334;-80
2022/10/05 03:47:35;;;;;;;8.30;7.50;;;11.70;1.00;;;;;;5044173;28;20510;-80
2022/10/05 03:50:22;;;;;;;8.60;7.80;;;11.80;1.00;;;;;;5043875;28;20547;-82
2022/10/05 03:52:56;;;;;;;7.93;7.23;;;11.80;1.00;;;;;;5036538;28;21067;-81
2022/10/05 03:55:29;;;;;;;9.20;8.40;;;11.90;1.00;;;;;;5042943;28;20468;-81
2022/10/05 03:58:01;;;;;;;7.23;6.63;;;11.80;1.00;;;;;;5043397;28;20472;-81
2022/10/05 04:00:30;;;;;;;7.63;6.90;;;11.80;99.90;;;;;;5042507;28;20569;-80
2022/10/05 04:03:04;;;;;;;7.93;7.07;;;11.70;99.90;;;;;;5038058;28;20834;-81
2022/10/05 04:05:36;;;;;;;7.70;7.10;;;11.70;99.90;;;;;;5042772;28;20468;-81
2022/10/05 04:08:09;;;;;;;8.50;7.60;;;11.60;99.90;;;;;;5040905;28;20503;-81
2022/10/05 04:10:43;;;;;;;8.30;7.50;;;11.60;1.00;;;;;;5041436;28;20552;-82
2022/10/05 04:13:17;;;;;;;8.93;8.13;;;11.70;1.00;;;;;;5046819;28;20505;-81
2022/10/05 04:15:50;;;;;;;8.87;8.13;;;11.80;1.00;;;;;;5034136;28;20465;-80
2022/10/05 04:18:26;;;;;;;9.40;8.60;;;11.90;1.00;;;;;;5044126;28;20518;-80
2022/10/05 04:21:00;;;;;;;8.90;8.20;;;11.90;1.00;;;;;;5046239;28;20486;-80
2022/10/05 04:23:38;;;;;;;9.37;8.47;;;11.80;99.90;;;;;;5044491;28;20508;-82
2022/10/05 04:26:11;;;;;;;9.00;8.20;;;11.70;99.90;;;;;;5048217;28;20443;-82
2022/10/05 04:28:50;;;;;;;7.77;7.17;;;11.70;1.00;;;;;;5049421;28;20474;-81
2022/10/05 04:31:29;;;;;;;8.60;7.40;;;11.70;99.90;;;;;;5035135;28;21026;-81
2022/10/05 04:34:10;;;;;;;8.70;8.07;;;11.60;99.90;;;;;;5043186;28;20455;-80
2022/10/05 04:36:49;;;;;;;9.87;7.67;;;11.60;99.90;;;;;;5043114;28;20460;-80
2022/10/05 04:39:23;;;;;;;8.93;8.03;;;11.50;99.90;;;;;;5047695;28;20558;-81
2022/10/05 04:42:04;;;;;;;8.37;7.57;;;11.50;99.90;;;;;;5043449;28;20482;-83
2022/10/05 04:44:45;;;;;;;7.73;7.13;;;11.40;99.90;;;;;;5041497;28;21009;-81
2022/10/05 04:47:31;;;;;;;7.40;6.77;;;11.40;99.90;;;;;;5050212;28;20501;-82
2022/10/05 04:50:19;;;;;;;8.37;7.77;;;11.50;33.40;;;;;;5050486;28;20459;-83
2022/10/05 04:52:57;;;;;;;9.00;8.10;;;11.40;99.90;;;;;;5039972;28;20523;-81
2022/10/05 04:55:31;;;;;;;8.23;7.53;;;11.50;99.90;;;;;;5044632;28;20455;-82
2022/10/05 04:58:09;;;;;;;8.47;7.77;;;11.40;99.90;;;;;;5049395;28;20499;-81
2022/10/05 05:00:49;;;;;;;8.37;7.67;;;11.30;99.90;;;;;;5044989;28;20877;-81
2022/10/05 05:03:46;;;;;;;7.97;7.37;;;11.30;99.90;;;;;;5041025;28;20481;-82
2022/10/05 05:06:29;;;;;;;8.83;8.07;;;11.30;99.90;;;;;;5019695;28;20463;-81
2022/10/05 05:09:37;;;;;;;7.57;7.03;;;11.40;1.00;;;;;;5053334;28;20476;-82
2022/10/05 05:12:17;;;;;;;7.83;7.20;;;11.50;99.90;;;;;;5033248;28;21014;-81
2022/10/05 05:15:04;;;;;;;8.33;7.63;;;11.30;99.90;;;;;;5037333;28;20493;-82
2022/10/05 05:17:48;;;;;;;8.67;7.97;;;11.30;99.90;;;;;;5044673;28;20514;-81
2022/10/05 05:20:23;;;;;;;8.63;7.93;;;11.30;99.90;;;;;;5040119;28;20555;-81
2022/10/05 05:22:57;;;;;;;8.53;7.83;;;11.20;99.90;;;;;;5045458;28;20495;-82
2022/10/05 05:25:36;;;;;;;9.70;8.37;;;11.20;1.00;;;;;;5044416;28;20463;-81
2022/10/05 05:28:17;;;;;;;10.67;9.60;;;11.30;1.00;;;;;;5046274;28;20586;-81
2022/10/05 05:30:52;;;;;;;9.13;8.33;;;11.30;1.00;;;;;;5041436;28;20483;-82
2022/10/05 05:33:23;;;;;;;11.03;9.60;;;11.40;99.90;;;;;;5046284;28;20455;-82
2022/10/05 05:36:24;;;;;;;10.17;9.17;;;11.30;99.90;;;;;;5048080;28;20444;-81
2022/10/05 05:39:08;;;;;;;9.20;8.30;;;11.30;99.90;;;;;;5048330;28;20502;-79
2022/10/05 05:41:39;;;;;;;9.43;8.60;;;11.30;99.90;;;;;;5045224;28;20448;-81
2022/10/05 05:44:19;;;;;;;9.87;8.87;;;11.30;1.00;;;;;;5041747;28;20467;-81
2022/10/05 05:46:53;;;;;;;11.07;9.97;;;11.30;76.10;;;;;;5047481;28;20506;-81
2022/10/05 05:49:49;;;;;;;8.37;7.67;;;11.20;99.90;;;;;;5042041;28;20998;-82
2022/10/05 05:52:23;;;;;;;9.53;7.77;;;11.20;99.90;;;;;;5043606;28;20450;-81
2022/10/05 05:54:57;;;;;;;9.63;8.73;;;11.10;99.90;;;;;;5045086;28;20448;-81
2022/10/05 05:57:30;;;;;;;11.30;10.27;;;11.20;1.00;;;;;;5037504;28;20499;-82
2022/10/05 06:00:06;;;;;;;12.23;11.13;;;11.50;1.00;;;;;;5044744;28;20525;-82
2022/10/05 06:02:40;;;;;;;9.80;9.00;;;11.60;1.00;;;;;;5037708;28;20464;-82
2022/10/05 06:05:25;;;;;;;10.30;9.43;;;11.70;1.00;;;;;;5039535;28;20473;-81
2022/10/05 06:07:56;;;;;;;10.30;9.23;;;11.80;1.00;;;;;;5037783;28;20495;-80
2022/10/05 06:10:31;;;;;;;10.77;9.70;;;11.80;1.00;;;;;;5045308;28;20452;-81
2022/10/05 06:13:07;;;;;;;9.80;9.00;;;11.80;1.00;;;;;;5038614;28;20448;-81
2022/10/05 06:15:40;;;;;;;10.87;10.03;;;12.10;1.00;;;;;;5038655;28;20550;-81
2022/10/05 06:18:12;;;;;;;10.80;9.93;;;12.10;1.00;;;;;;5045716;28;20563;-81
2022/10/05 06:20:43;;;;;;;11.30;10.23;;;12.20;1.00;;;;;;5045585;28;20555;-81
2022/10/05 06:23:16;;;;;;;11.33;10.13;;;12.30;1.00;;;;;;5045807;28;20967;-81
2022/10/05 06:25:54;;;;;;;10.43;9.43;;;12.30;1.00;;;;;;5039254;28;20971;-81
2022/10/05 06:28:25;;;;;;;11.50;10.60;;;12.40;1.00;;;;;;5044826;28;20548;-81
2022/10/05 06:31:03;;;;;;;10.63;9.83;;;12.50;1.00;;;;;;5044762;28;20444;-82
2022/10/05 06:33:47;;;;;;;10.03;9.33;;;12.50;1.00;;;;;;5039560;28;20458;-81
2022/10/05 06:36:28;;;;;;;10.10;9.40;;;12.50;1.00;;;;;;5043167;28;20461;-81
2022/10/05 06:39:23;;;;;;;9.50;8.67;;;12.60;1.00;;;;;;5033969;28;20587;-80
2022/10/05 06:42:07;;;;;;;11.17;10.17;;;12.60;1.00;;;;;;5046049;28;20481;-81
2022/10/05 06:44:43;;;;;;;10.03;9.27;;;12.70;1.00;;;;;;5044276;28;20890;-84
2022/10/05 06:47:23;;;;;;;10.80;10.00;;;12.80;99.90;;;;;;5034758;28;20481;-81
2022/10/05 06:49:58;;;;;;;9.50;8.90;;;12.90;99.90;;;;;;5044577;28;20461;-81
2022/10/05 06:52:35;;;;;;;10.97;10.00;;;12.90;99.90;;;;;;5045109;28;20567;-82
2022/10/05 06:55:15;;;;;;;10.03;9.33;;;13.00;99.90;;;;;;5043555;28;20533;-81
2022/10/05 06:57:53;;;;;;;10.33;9.63;;;13.00;99.90;;;;;;5048546;28;20453;-81
2022/10/05 07:00:25;;;;;;;9.67;9.00;;;13.00;1.00;;;;;;5040928;28;20553;-81
2022/10/05 07:02:59;;;;;;;9.07;8.27;;;13.20;99.90;;;;;;5046300;28;20518;-81
2022/10/05 07:05:53;;;;;;;9.70;9.20;;;13.30;99.90;;;;;;5042530;28;20515;-82
2022/10/05 07:08:29;;;;;;;10.00;9.37;;;13.40;99.90;;;;;;5039084;28;21189;-81
2022/10/05 07:11:21;;;;;;;8.43;7.83;;;13.40;99.90;;;;;;5042249;28;20991;-82
2022/10/05 07:14:11;;;;;;;9.70;9.10;;;13.40;99.90;;;;;;5042710;28;20474;-81
2022/10/05 07:16:54;;;;;;;9.73;9.03;;;13.60;99.90;;;;;;5047420;28;20478;-82
2022/10/05 07:19:32;;;;;;;9.07;8.57;;;13.70;99.90;;;;;;5051828;28;20487;-81
2022/10/05 07:22:31;;;;;;;9.47;8.97;;;13.90;99.90;;;;;;5030660;28;20454;-81
2022/10/05 07:25:09;;;;;;;9.63;9.10;;;13.90;99.90;;;;;;5044578;28;20482;-81
2022/10/05 07:27:44;;;;;;;9.77;9.27;;;14.10;45.10;;;;;;5039129;28;21213;-80
2022/10/05 07:30:19;;;;;;;10.63;10.10;;;14.30;1.00;;;;;;5039673;28;22205;-82
2022/10/05 07:32:58;;;;;;;10.90;10.13;;;14.50;99.90;;;;;;5046192;28;20455;-81
2022/10/05 07:38:30;;;;;;;9.93;9.33;;;15.00;91.70;;;;;;5043876;28;20482;-82
2022/10/05 07:41:05;;;;;;;10.47;10.07;;;15.50;1.00;;;;;;5043574;28;20504;-82
2022/10/05 07:43:41;;;;;;;10.10;9.60;;;16.00;99.90;;;;;;5041818;28;20491;-81
2022/10/05 07:46:42;;;;;;;9.50;9.10;;;16.50;1.00;;;;;;5042284;28;20448;-82
2022/10/05 07:49:18;;;;;;;9.83;9.33;;;17.10;1.00;;;;;;5046030;28;20465;-82
2022/10/05 07:51:50;;;;;;;9.33;8.90;;;17.70;99.90;;;;;;5040003;28;20465;-82
2022/10/05 07:54:24;;;;;;;9.80;9.30;;;18.30;99.90;;;;;;5054612;28;20514;-81
2022/10/05 07:57:01;;;;;;;8.57;7.93;;;18.70;8.20;;;;;;5040950;28;20458;-82
2022/10/05 07:59:36;;;;;;;8.20;7.80;;;19.00;1.00;;;;;;5036792;28;20869;-82
2022/10/05 08:02:11;;;;;;;7.23;7.03;;;19.30;1.00;;;;;;5046519;28;20442;-81
2022/10/05 08:04:51;;;;;;;7.90;7.50;;;19.50;1.00;;;;;;5050180;28;20558;-82
2022/10/05 08:07:19;;;;;;;6.90;6.50;;;19.80;1.00;;;;;;5047778;28;20472;-81
2022/10/05 08:09:54;;;;;;;6.00;5.80;;;20.20;99.90;;;;;;5050573;28;20543;-82
2022/10/05 08:12:36;;;;;;;6.20;5.97;;;20.30;99.90;;;;;;5040755;28;20439;-82
2022/10/05 08:15:13;;;;;;;5.67;5.47;;;20.60;99.90;;;;;;5044944;28;20456;-81
2022/10/05 08:17:50;;;;;;;5.60;5.40;;;20.80;99.90;;;;;;5039550;28;20513;-82
2022/10/05 08:20:41;;;;;;;5.20;5.00;;;21.10;99.90;;;;;;5046689;28;20463;-83
2022/10/05 08:23:22;;;;;;;5.60;5.17;;;21.40;99.90;;;;;;5048865;28;20978;-82
2022/10/05 08:26:06;;;;;;;5.00;4.80;;;22.00;99.90;;;;;;5047695;28;20575;-82
2022/10/05 08:28:38;;;;;;;6.93;6.73;;;22.30;99.90;;;;;;5056253;28;20476;-81
2022/10/05 08:31:15;;;;;;;5.47;5.27;;;22.80;99.90;;;;;;5044237;28;20495;-82
2022/10/05 08:33:52;;;;;;;6.13;5.90;;;23.20;99.90;;;;;;5046146;28;20455;-82
2022/10/05 08:36:31;;;;;;;6.00;5.80;;;23.80;99.90;;;;;;5042554;28;20557;-82
2022/10/05 08:39:02;;;;;;;4.07;3.97;;;23.80;99.90;;;;;;5044014;28;20910;-82
2022/10/05 08:41:58;;;;;;;3.73;3.63;;;24.40;99.90;;;;;;5041589;28;20899;-82
2022/10/05 08:45:05;;;;;;;3.57;3.37;;;25.00;99.90;;;;;;5044940;28;20467;-82
2022/10/05 08:47:56;;;;;;;3.30;3.10;;;25.70;99.90;;;;;;5024169;28;20538;-81
2022/10/05 08:50:42;;;;;;;2.63;2.53;;;26.20;99.90;;;;;;5039223;28;20983;-81
2022/10/05 08:53:21;;;;;;;4.13;2.87;;;26.60;99.90;;;;;;5058713;28;20447;-83
2022/10/05 08:56:22;;;;;;;2.70;2.57;;;27.20;99.90;;;;;;5038792;28;20453;-81
2022/10/05 08:59:10;;;;;;;2.60;2.40;;;27.70;99.90;;;;;;5040251;28;20479;-82
2022/10/05 09:01:52;;;;;;;2.10;2.00;;;28.10;99.90;;;;;;5043586;28;20520;-82
2022/10/05 09:04:33;;;;;;;2.27;2.17;;;28.10;99.90;;;;;;5043314;28;20455;-83
2022/10/05 09:07:22;;;;;;;2.23;2.10;;;28.30;99.90;;;;;;5042469;28;20470;-82
2022/10/05 09:10:35;;;;;;;2.80;2.70;;;28.80;99.90;;;;;;5043208;28;20458;-82
2022/10/05 09:13:43;;;;;;;3.57;2.20;;;29.60;99.90;;;;;;5035334;28;20453;-82
2022/10/05 09:16:25;;;;;;;2.20;2.10;;;29.70;99.90;;;;;;5037773;28;20565;-82
2022/10/05 09:19:33;;;;;;;2.17;2.07;;;29.90;99.90;;;;;;5048704;28;21078;-82
2022/10/05 09:22:13;;;;;;;1.93;1.83;;;30.00;99.90;;;;;;5044130;28;20459;-83
2022/10/05 09:24:55;;;;;;;1.90;1.80;;;30.80;99.90;;;;;;5048625;28;20483;-81
2022/10/05 09:27:37;;;;;;;2.17;1.70;;;31.10;99.90;;;;;;5041743;28;20546;-82
2022/10/05 09:30:17;;;;;;;2.00;1.63;;;31.80;99.90;;;;;;5043651;28;20815;-83
2022/10/05 09:33:24;;;;;;;2.10;1.97;;;32.50;99.90;;;;;;5040879;28;20460;-83
2022/10/05 09:36:49;;;;;;;1.90;1.77;;;33.10;99.90;;;;;;5041418;28;20445;-82
2022/10/05 09:39:56;;;;;;;2.00;1.90;;;32.60;99.90;;;;;;5044256;28;20467;-81
2022/10/05 09:42:55;;;;;;;1.70;1.60;;;31.80;99.90;;;;;;5043774;28;20497;-82
2022/10/05 09:45:42;;;;;;;1.90;1.80;;;31.10;99.90;;;;;;5046282;28;21052;-83
2022/10/05 09:48:43;;;;;;;3.37;1.60;;;30.80;99.90;;;;;;5037376;28;20490;-83
2022/10/05 09:51:46;;;;;;;4.90;1.70;;;30.60;99.90;;;;;;5042926;28;20466;-83
2022/10/05 09:54:42;;;;;;;2.20;2.00;;;30.20;99.90;;;;;;5042219;28;20987;-82
2022/10/05 09:57:42;;;;;;;1.90;1.80;;;30.40;99.90;;;;;;5041990;28;20479;-83
2022/10/05 10:00:29;;;;;;;2.00;1.80;;;30.30;99.90;;;;;;5044558;28;20444;-83
2022/10/05 10:03:45;;;;;;;1.60;1.50;;;31.10;99.90;;;;;;5035943;28;20440;-82
2022/10/05 10:06:36;;;;;;;2.00;1.80;;;32.00;99.90;;;;;;5042709;28;20483;-82
2022/10/05 10:09:31;;;;;;;1.73;1.63;;;33.10;99.90;;;;;;5050175;28;20536;-82
2022/10/05 10:12:32;;;;;;;2.00;1.90;;;33.90;99.90;;;;;;5048318;28;20903;-82
2022/10/05 10:15:37;;;;;;;1.60;1.50;;;35.00;99.90;;;;;;5045129;28;20471;-83
2022/10/05 10:18:26;;;;;;;1.57;1.47;;;36.10;99.90;;;;;;5046783;28;20479;-82
2022/10/05 10:21:31;;;;;;;1.60;1.50;;;37.00;99.90;;;;;;5045558;28;20460;-82
2022/10/05 10:24:15;;;;;;;1.83;1.73;;;37.60;99.90;;;;;;5048092;28;20455;-83
2022/10/05 10:27:16;;;;;;;1.67;1.57;;;39.10;99.90;;;;;;5049103;28;20481;-82
2022/10/05 10:30:09;;;;;;;1.80;1.70;;;39.60;99.90;;;;;;5041115;28;21062;-82
2022/10/05 10:32:55;;;;;;;2.78;1.73;;;39.60;99.90;;;;;;5015239;28;20455;-82
2022/10/05 10:35:32;;;;;;;1.70;1.60;;;39.80;99.90;;;;;;5048094;28;20208;-83
2022/10/05 10:38:27;;;;;;;1.53;1.43;;;40.20;99.90;;;;;;5048149;28;20486;-84
2022/10/05 10:41:24;;;;;;;1.53;1.43;;;40.40;99.90;;;;;;5050582;28;20451;-84
2022/10/05 10:44:17;;;;;;;2.60;1.47;;;39.90;99.90;;;;;;5048225;28;20973;-83
2022/10/05 10:46:53;;;;;;;1.93;1.67;;;40.40;99.90;;;;;;5037126;28;20465;-82
2022/10/05 10:49:47;;;;;;;1.70;1.60;;;41.40;99.90;;;;;;5037298;28;20459;-83
2022/10/05 10:52:32;;;;;;;1.70;1.60;;;41.20;99.90;;;;;;5062334;28;20963;-83
2022/10/05 10:55:35;;;;;;;1.87;1.60;;;40.70;99.90;;;;;;5048054;28;20470;-82
2022/10/05 10:58:51;;;;;;;1.70;1.60;;;40.60;99.90;;;;;;5053650;28;20487;-82
2022/10/05 11:01:32;;;;;;;2.43;1.77;;;40.50;99.90;;;;;;5049475;28;20821;-83
2022/10/05 11:04:42;;;;;;;2.17;2.07;;;40.50;99.90;;;;;;5047249;28;20459;-83
2022/10/05 11:07:32;;;;;;;1.80;1.70;;;37.80;99.90;;;;;;5043587;28;20544;-82
2022/10/05 11:10:24;;;;;;;1.77;1.67;;;33.80;99.90;;;;;;5049592;28;20444;-82
2022/10/05 11:13:28;;;;;;;1.60;1.50;;;32.50;99.90;;;;;;5047836;28;20455;-83
2022/10/05 11:16:18;;;;;;;2.60;1.80;;;31.70;99.90;;;;;;5041786;28;20981;-83
2022/10/05 11:19:23;;;;;;;1.67;1.57;;;30.00;99.90;;;;;;5049989;28;20482;-82
2022/10/05 11:22:25;;;;;;;1.67;1.57;;;28.70;99.90;;;;;;4977967;28;21045;-82
2022/10/05 11:25:10;;;;;;;2.20;1.67;;;27.80;99.90;;;;;;5037381;28;20451;-82
2022/10/05 11:28:09;;;;;;;1.87;1.77;;;27.60;99.90;;;;;;5044658;28;20583;-83
2022/10/05 11:31:03;;;;;;;1.70;1.60;;;27.40;99.90;;;;;;5048025;28;20459;-83
2022/10/05 11:34:17;;;;;;;1.90;1.80;;;27.10;99.90;;;;;;5047035;28;20806;-82
2022/10/05 11:37:12;;;;;;;1.60;1.50;;;27.10;99.90;;;;;;5051042;28;20497;-83
2022/10/05 11:39:44;;;;;;;2.20;1.60;;;26.90;99.90;;;;;;5051606;28;20738;-83
2022/10/05 11:42:47;;;;;;;1.77;1.67;;;26.80;99.90;;;;;;5051172;28;20459;-83
2022/10/05 11:45:39;;;;;;;3.97;1.60;;;26.90;99.90;;;;;;5051164;28;20462;-83
2022/10/05 11:48:30;;;;;;;2.20;2.10;;;26.80;99.90;;;;;;5050381;28;20471;-83
2022/10/05 11:51:19;;;;;;;1.77;1.60;;;26.80;99.90;;;;;;5053224;28;20451;-83
2022/10/05 11:54:04;;;;;;;1.80;1.70;;;26.60;99.90;;;;;;5051746;28;20455;-83
2022/10/05 11:56:36;;;;;;;1.47;1.40;;;26.70;99.90;;;;;;5046257;28;20768;-84
2022/10/05 11:59:13;;;;;;;3.33;1.60;;;26.50;99.90;;;;;;5047789;28;20475;-83
2022/10/05 12:01:49;;;;;;;1.80;1.70;;;26.40;99.90;;;;;;5045181;28;20486;-84
2022/10/05 12:04:24;;;;;;;1.53;1.43;;;26.30;99.90;;;;;;5041085;28;20455;-83
2022/10/05 12:07:03;;;;;;;1.67;1.57;;;26.20;99.90;;;;;;5041209;28;20561;-84
2022/10/05 12:12:51;;;;;;;1.57;1.47;;;26.30;99.90;;;;;;5054304;28;20459;-82
2022/10/05 12:15:27;;;;;;;1.67;1.57;;;26.30;99.90;;;;;;5045665;28;20465;-84
2022/10/05 12:18:03;;;;;;;1.70;1.60;;;26.10;99.90;;;;;;5052134;28;20550;-82
2022/10/05 12:20:38;;;;;;;1.60;1.50;;;26.30;99.90;;;;;;5050781;28;20465;-83
2022/10/05 12:23:14;;;;;;;1.50;1.40;;;26.30;99.90;;;;;;5045394;28;20439;-82
2022/10/05 12:25:48;;;;;;;2.27;1.30;;;26.10;99.90;;;;;;5052552;28;20447;-84
2022/10/05 12:28:21;;;;;;;1.60;1.50;;;26.30;99.90;;;;;;5050784;28;20479;-85
2022/10/05 12:31:07;;;;;;;1.47;1.40;;;25.90;99.90;;;;;;5051710;28;20459;-84
2022/10/05 12:33:44;;;;;;;1.30;1.20;;;26.00;99.90;;;;;;5050984;28;20871;-84
2022/10/05 12:36:16;;;;;;;1.23;1.20;;;26.00;99.90;;;;;;5050278;28;20976;-85
2022/10/05 12:38:50;;;;;;;1.30;1.20;;;26.10;99.90;;;;;;5050932;28;20463;-83
2022/10/05 12:41:24;;;;;;;1.43;1.10;;;26.10;99.90;;;;;;5050590;28;20938;-82
2022/10/05 12:44:06;;;;;;;2.30;1.40;;;26.10;99.90;;;;;;5050689;28;20471;-83
2022/10/05 12:46:43;;;;;;;1.27;1.17;;;26.20;99.90;;;;;;5033992;28;20527;-83
2022/10/05 12:49:53;;;;;;;1.30;1.17;;;26.10;99.90;;;;;;5048904;28;20466;-82
2022/10/05 12:52:45;;;;;;;1.10;1.00;;;25.80;99.90;;;;;;5025581;28;20529;-81
2022/10/05 12:55:20;;;;;;;1.00;1.00;;;25.80;99.90;;;;;;5043397;28;20456;-83
2022/10/05 12:57:57;;;;;;;1.00;0.90;;;25.50;99.90;;;;;;5049845;28;20993;-82
2022/10/05 13:00:26;;;;;;;1.53;0.90;;;25.50;99.90;;;;;;5044409;28;20535;-81
2022/10/05 13:03:01;;;;;;;2.30;0.90;;;25.60;99.90;;;;;;5044649;28;20478;-83
2022/10/05 13:05:34;;;;;;;0.80;0.80;;;25.50;99.90;;;;;;5051459;28;20457;-81
2022/10/05 13:08:16;;;;;;;0.80;0.80;;;25.50;99.90;;;;;;5042891;28;20492;-83
2022/10/05 13:10:48;;;;;;;1.10;0.90;;;25.50;99.90;;;;;;5044993;28;21237;-83
2022/10/05 13:13:34;;;;;;;1.53;0.83;;;25.30;99.90;;;;;;5037690;28;21260;-82
2022/10/05 13:16:13;;;;;;;2.20;1.00;;;25.50;99.90;;;;;;5049406;28;20462;-81
2022/10/05 13:18:57;;;;;;;0.80;0.80;;;25.40;99.90;;;;;;5051910;28;20552;-81
2022/10/05 13:21:38;;;;;;;0.80;0.80;;;25.30;99.90;;;;;;5046940;28;20874;-82
2022/10/05 13:24:13;;;;;;;1.00;0.90;;;25.40;99.90;;;;;;5039605;28;20444;-82
2022/10/05 13:26:47;;;;;;;0.93;0.80;;;25.50;99.90;;;;;;5050729;28;20858;-80
2022/10/05 13:29:24;;;;;;;1.27;0.80;;;25.30;99.90;;;;;;5054269;28;21257;-82
2022/10/05 13:31:56;;;;;;;0.80;0.80;;;25.30;99.90;;;;;;5037009;28;20501;-80
2022/10/05 13:34:33;;;;;;;0.70;0.70;;;25.40;99.90;;;;;;5036506;28;20451;-80
2022/10/05 13:37:12;;;;;;;0.93;0.83;;;25.30;99.90;;;;;;5042227;28;20446;-82
2022/10/05 13:39:53;;;;;;;1.13;0.80;;;25.00;99.90;;;;;;5049326;28;20455;-83
2022/10/05 13:42:31;;;;;;;0.93;0.90;;;25.10;99.90;;;;;;5049412;28;20447;-84
2022/10/05 13:45:11;;;;;;;0.80;0.80;;;24.90;99.90;;;;;;5042721;28;20443;-83
2022/10/05 13:47:46;;;;;;;1.47;0.90;;;24.90;99.90;;;;;;5041849;28;20488;-82
2022/10/05 13:50:20;;;;;;;1.80;1.03;;;24.90;99.90;;;;;;5047227;28;20444;-83
2022/10/05 13:52:53;;;;;;;1.27;1.03;;;24.70;99.90;;;;;;5049672;28;20447;-83
2022/10/05 13:55:34;;;;;;;0.80;0.80;;;24.70;99.90;;;;;;5044534;28;20463;-84
2022/10/05 13:58:07;;;;;;;1.00;0.90;;;24.70;99.90;;;;;;5047020;28;20916;-84
2022/10/05 14:00:46;;;;;;;1.23;0.80;;;24.70;99.90;;;;;;5045952;28;21003;-84
2022/10/05 14:03:29;;;;;;;1.00;0.90;;;24.70;99.90;;;;;;5053171;28;20494;-83
2022/10/05 14:06:02;;;;;;;1.30;1.00;;;24.70;99.90;;;;;;5043289;28;21198;-82